sensor_id;sensor_type;location;lat;lon;timestamp;P1;durP1;ratioP1;P2;durP2;ratioP2
61903;SDS011;47857;52.270;6.804;2024-02-23T00:01:45;0.85;;;0.20;;
61903;SDS011;47857;52.270;6.804;2024-02-23T00:04:11;0.20;;;0.05;;
61903;SDS011;47857;52.270;6.804;2024-02-23T00:06:37;0.40;;;0.15;;
61903;SDS011;47857;52.270;6.804;2024-02-23T00:09:02;0.93;;;0.15;;
61903;SDS011;47857;52.270;6.804;2024-02-23T00:11:28;1.65;;;0.20;;
61903;SDS011;47857;52.270;6.804;2024-02-23T00:13:54;0.28;;;0.10;;
61903;SDS011;47857;52.270;6.804;2024-02-23T00:16:19;0.73;;;0.10;;
61903;SDS011;47857;52.270;6.804;2024-02-23T00:18:45;0.55;;;0.20;;
61903;SDS011;47857;52.270;6.804;2024-02-23T00:21:10;0.85;;;0.17;;
61903;SDS011;47857;52.270;6.804;2024-02-23T00:23:36;1.00;;;0.15;;
61903;SDS011;47857;52.270;6.804;2024-02-23T00:26:02;1.95;;;0.20;;
61903;SDS011;47857;52.270;6.804;2024-02-23T00:28:27;1.45;;;0.20;;
61903;SDS011;47857;52.270;6.804;2024-02-23T00:30:53;0.82;;;0.40;;
61903;SDS011;47857;52.270;6.804;2024-02-23T00:33:19;1.52;;;0.25;;
61903;SDS011;47857;52.270;6.804;2024-02-23T00:35:44;0.85;;;0.20;;
61903;SDS011;47857;52.270;6.804;2024-02-23T00:38:09;2.50;;;0.40;;
61903;SDS011;47857;52.270;6.804;2024-02-23T00:40:35;1.05;;;0.35;;
61903;SDS011;47857;52.270;6.804;2024-02-23T00:43:01;1.15;;;0.40;;
61903;SDS011;47857;52.270;6.804;2024-02-23T00:45:28;2.05;;;0.57;;
61903;SDS011;47857;52.270;6.804;2024-02-23T00:47:53;0.52;;;0.40;;
61903;SDS011;47857;52.270;6.804;2024-02-23T00:50:19;0.98;;;0.40;;
61903;SDS011;47857;52.270;6.804;2024-02-23T00:52:44;1.27;;;0.70;;
61903;SDS011;47857;52.270;6.804;2024-02-23T00:55:10;1.83;;;0.50;;
61903;SDS011;47857;52.270;6.804;2024-02-23T00:57:36;1.27;;;0.60;;
61903;SDS011;47857;52.270;6.804;2024-02-23T01:00:02;1.95;;;0.80;;
61903;SDS011;47857;52.270;6.804;2024-02-23T01:02:30;2.60;;;0.63;;
61903;SDS011;47857;52.270;6.804;2024-02-23T01:04:56;2.17;;;0.98;;
61903;SDS011;47857;52.270;6.804;2024-02-23T01:07:24;1.98;;;0.70;;
61903;SDS011;47857;52.270;6.804;2024-02-23T01:09:49;3.90;;;0.95;;
61903;SDS011;47857;52.270;6.804;2024-02-23T01:12:15;5.10;;;0.70;;
61903;SDS011;47857;52.270;6.804;2024-02-23T01:14:40;2.30;;;0.98;;
61903;SDS011;47857;52.270;6.804;2024-02-23T01:17:06;3.85;;;0.77;;
61903;SDS011;47857;52.270;6.804;2024-02-23T01:19:31;3.35;;;1.13;;
61903;SDS011;47857;52.270;6.804;2024-02-23T01:21:57;5.32;;;1.23;;
61903;SDS011;47857;52.270;6.804;2024-02-23T01:24:28;2.85;;;0.90;;
61903;SDS011;47857;52.270;6.804;2024-02-23T01:26:57;2.75;;;1.10;;
61903;SDS011;47857;52.270;6.804;2024-02-23T01:29:24;3.70;;;1.20;;
61903;SDS011;47857;52.270;6.804;2024-02-23T01:31:50;3.97;;;1.10;;
61903;SDS011;47857;52.270;6.804;2024-02-23T01:34:16;2.80;;;1.05;;
61903;SDS011;47857;52.270;6.804;2024-02-23T01:36:43;7.15;;;1.30;;
61903;SDS011;47857;52.270;6.804;2024-02-23T01:39:09;4.40;;;1.40;;
61903;SDS011;47857;52.270;6.804;2024-02-23T01:41:36;5.75;;;1.58;;
61903;SDS011;47857;52.270;6.804;2024-02-23T01:44:01;8.00;;;1.55;;
61903;SDS011;47857;52.270;6.804;2024-02-23T01:46:27;5.80;;;1.40;;
61903;SDS011;47857;52.270;6.804;2024-02-23T01:48:53;5.70;;;1.45;;
61903;SDS011;47857;52.270;6.804;2024-02-23T01:51:19;5.07;;;1.33;;
61903;SDS011;47857;52.270;6.804;2024-02-23T01:53:44;6.95;;;1.48;;
61903;SDS011;47857;52.270;6.804;2024-02-23T01:56:10;2.15;;;0.82;;
61903;SDS011;47857;52.270;6.804;2024-02-23T01:58:38;1.98;;;0.60;;
61903;SDS011;47857;52.270;6.804;2024-02-23T02:01:04;1.80;;;0.63;;
61903;SDS011;47857;52.270;6.804;2024-02-23T02:03:30;5.32;;;0.68;;
61903;SDS011;47857;52.270;6.804;2024-02-23T02:05:56;5.70;;;1.17;;
61903;SDS011;47857;52.270;6.804;2024-02-23T02:08:24;6.03;;;0.77;;
61903;SDS011;47857;52.270;6.804;2024-02-23T02:10:50;3.08;;;0.50;;
61903;SDS011;47857;52.270;6.804;2024-02-23T02:13:16;2.47;;;0.70;;
61903;SDS011;47857;52.270;6.804;2024-02-23T02:15:41;4.93;;;0.70;;
61903;SDS011;47857;52.270;6.804;2024-02-23T02:18:09;3.90;;;1.00;;
61903;SDS011;47857;52.270;6.804;2024-02-23T02:20:35;6.25;;;1.13;;
61903;SDS011;47857;52.270;6.804;2024-02-23T02:23:01;6.07;;;1.40;;
61903;SDS011;47857;52.270;6.804;2024-02-23T02:25:27;4.35;;;0.90;;
61903;SDS011;47857;52.270;6.804;2024-02-23T02:27:53;4.75;;;1.48;;
61903;SDS011;47857;52.270;6.804;2024-02-23T02:30:19;6.22;;;1.83;;
61903;SDS011;47857;52.270;6.804;2024-02-23T02:32:45;8.00;;;2.40;;
61903;SDS011;47857;52.270;6.804;2024-02-23T02:35:10;7.38;;;3.20;;
61903;SDS011;47857;52.270;6.804;2024-02-23T02:37:37;7.28;;;3.20;;
61903;SDS011;47857;52.270;6.804;2024-02-23T02:40:02;8.73;;;3.90;;
61903;SDS011;47857;52.270;6.804;2024-02-23T02:42:28;9.90;;;3.72;;
61903;SDS011;47857;52.270;6.804;2024-02-23T02:44:54;8.45;;;4.03;;
61903;SDS011;47857;52.270;6.804;2024-02-23T02:47:20;10.07;;;4.63;;
61903;SDS011;47857;52.270;6.804;2024-02-23T02:49:45;10.90;;;4.35;;
61903;SDS011;47857;52.270;6.804;2024-02-23T02:52:11;9.27;;;3.85;;
61903;SDS011;47857;52.270;6.804;2024-02-23T02:54:36;7.72;;;3.80;;
61903;SDS011;47857;52.270;6.804;2024-02-23T02:57:02;10.30;;;3.97;;
61903;SDS011;47857;52.270;6.804;2024-02-23T02:59:27;9.95;;;4.50;;
61903;SDS011;47857;52.270;6.804;2024-02-23T03:01:53;9.60;;;3.55;;
61903;SDS011;47857;52.270;6.804;2024-02-23T03:04:18;9.02;;;4.32;;
61903;SDS011;47857;52.270;6.804;2024-02-23T03:06:44;14.65;;;3.63;;
61903;SDS011;47857;52.270;6.804;2024-02-23T03:09:09;9.98;;;2.72;;
61903;SDS011;47857;52.270;6.804;2024-02-23T03:11:35;10.27;;;2.90;;
61903;SDS011;47857;52.270;6.804;2024-02-23T03:14:01;6.90;;;2.30;;
61903;SDS011;47857;52.270;6.804;2024-02-23T03:16:26;9.10;;;2.10;;
61903;SDS011;47857;52.270;6.804;2024-02-23T03:18:52;9.18;;;2.15;;
61903;SDS011;47857;52.270;6.804;2024-02-23T03:21:19;7.85;;;1.98;;
61903;SDS011;47857;52.270;6.804;2024-02-23T03:23:45;6.68;;;1.77;;
61903;SDS011;47857;52.270;6.804;2024-02-23T03:26:10;8.70;;;1.75;;
61903;SDS011;47857;52.270;6.804;2024-02-23T03:28:36;6.22;;;1.50;;
61903;SDS011;47857;52.270;6.804;2024-02-23T03:31:01;9.55;;;1.70;;
61903;SDS011;47857;52.270;6.804;2024-02-23T03:33:27;10.27;;;1.60;;
61903;SDS011;47857;52.270;6.804;2024-02-23T03:35:52;9.57;;;1.42;;
61903;SDS011;47857;52.270;6.804;2024-02-23T03:38:18;7.88;;;1.25;;
61903;SDS011;47857;52.270;6.804;2024-02-23T03:40:43;13.65;;;2.33;;
61903;SDS011;47857;52.270;6.804;2024-02-23T03:43:09;8.23;;;1.38;;
61903;SDS011;47857;52.270;6.804;2024-02-23T03:45:34;9.45;;;1.58;;
61903;SDS011;47857;52.270;6.804;2024-02-23T03:48:02;8.05;;;1.38;;
61903;SDS011;47857;52.270;6.804;2024-02-23T03:50:29;7.80;;;1.38;;
61903;SDS011;47857;52.270;6.804;2024-02-23T03:52:54;7.63;;;1.48;;
61903;SDS011;47857;52.270;6.804;2024-02-23T03:55:20;8.45;;;1.30;;
61903;SDS011;47857;52.270;6.804;2024-02-23T03:57:47;6.50;;;1.50;;
61903;SDS011;47857;52.270;6.804;2024-02-23T04:00:13;11.82;;;1.67;;
61903;SDS011;47857;52.270;6.804;2024-02-23T04:02:40;10.55;;;1.77;;
61903;SDS011;47857;52.270;6.804;2024-02-23T04:05:06;6.43;;;1.58;;
61903;SDS011;47857;52.270;6.804;2024-02-23T04:07:32;7.63;;;1.55;;
61903;SDS011;47857;52.270;6.804;2024-02-23T04:09:57;6.93;;;1.63;;
61903;SDS011;47857;52.270;6.804;2024-02-23T04:12:23;8.60;;;1.75;;
61903;SDS011;47857;52.270;6.804;2024-02-23T04:14:49;7.97;;;1.90;;
61903;SDS011;47857;52.270;6.804;2024-02-23T04:17:15;6.15;;;1.70;;
61903;SDS011;47857;52.270;6.804;2024-02-23T04:19:41;5.38;;;1.27;;
61903;SDS011;47857;52.270;6.804;2024-02-23T04:22:07;7.82;;;1.60;;
61903;SDS011;47857;52.270;6.804;2024-02-23T04:24:38;4.60;;;1.20;;
61903;SDS011;47857;52.270;6.804;2024-02-23T04:27:04;6.30;;;1.15;;
61903;SDS011;47857;52.270;6.804;2024-02-23T04:29:30;7.47;;;1.27;;
61903;SDS011;47857;52.270;6.804;2024-02-23T04:31:57;5.35;;;0.90;;
61903;SDS011;47857;52.270;6.804;2024-02-23T04:34:23;4.30;;;1.20;;
61903;SDS011;47857;52.270;6.804;2024-02-23T04:36:48;9.20;;;1.20;;
61903;SDS011;47857;52.270;6.804;2024-02-23T04:39:14;7.13;;;1.35;;
61903;SDS011;47857;52.270;6.804;2024-02-23T04:41:39;6.70;;;1.08;;
61903;SDS011;47857;52.270;6.804;2024-02-23T04:44:05;10.45;;;1.70;;
61903;SDS011;47857;52.270;6.804;2024-02-23T04:46:31;5.35;;;1.15;;
61903;SDS011;47857;52.270;6.804;2024-02-23T04:48:56;9.25;;;1.48;;
61903;SDS011;47857;52.270;6.804;2024-02-23T04:51:22;9.73;;;1.33;;
61903;SDS011;47857;52.270;6.804;2024-02-23T04:53:48;8.63;;;1.55;;
61903;SDS011;47857;52.270;6.804;2024-02-23T04:56:14;5.82;;;1.20;;
61903;SDS011;47857;52.270;6.804;2024-02-23T04:58:40;7.55;;;1.52;;
61903;SDS011;47857;52.270;6.804;2024-02-23T05:01:07;10.00;;;1.75;;
61903;SDS011;47857;52.270;6.804;2024-02-23T05:03:32;7.18;;;1.20;;
61903;SDS011;47857;52.270;6.804;2024-02-23T05:05:58;10.25;;;1.50;;
61903;SDS011;47857;52.270;6.804;2024-02-23T05:08:23;7.88;;;1.13;;
61903;SDS011;47857;52.270;6.804;2024-02-23T05:10:49;5.25;;;1.80;;
61903;SDS011;47857;52.270;6.804;2024-02-23T05:13:16;6.97;;;1.08;;
61903;SDS011;47857;52.270;6.804;2024-02-23T05:15:41;7.80;;;1.13;;
61903;SDS011;47857;52.270;6.804;2024-02-23T05:18:07;5.88;;;1.38;;
61903;SDS011;47857;52.270;6.804;2024-02-23T05:20:32;7.55;;;1.50;;
61903;SDS011;47857;52.270;6.804;2024-02-23T05:22:58;8.13;;;1.50;;
61903;SDS011;47857;52.270;6.804;2024-02-23T05:25:24;10.85;;;1.80;;
61903;SDS011;47857;52.270;6.804;2024-02-23T05:27:51;6.13;;;1.40;;
61903;SDS011;47857;52.270;6.804;2024-02-23T05:30:16;7.50;;;1.35;;
61903;SDS011;47857;52.270;6.804;2024-02-23T05:32:42;5.35;;;1.48;;
61903;SDS011;47857;52.270;6.804;2024-02-23T05:35:07;4.55;;;1.05;;
61903;SDS011;47857;52.270;6.804;2024-02-23T05:37:34;8.52;;;1.65;;
61903;SDS011;47857;52.270;6.804;2024-02-23T05:40:00;3.90;;;1.40;;
61903;SDS011;47857;52.270;6.804;2024-02-23T05:42:29;8.00;;;1.50;;
61903;SDS011;47857;52.270;6.804;2024-02-23T05:44:55;7.13;;;1.65;;
61903;SDS011;47857;52.270;6.804;2024-02-23T05:47:20;13.07;;;1.80;;
61903;SDS011;47857;52.270;6.804;2024-02-23T05:49:46;14.10;;;1.65;;
61903;SDS011;47857;52.270;6.804;2024-02-23T05:52:12;6.35;;;1.77;;
61903;SDS011;47857;52.270;6.804;2024-02-23T05:54:38;5.35;;;1.52;;
61903;SDS011;47857;52.270;6.804;2024-02-23T05:57:03;8.55;;;1.70;;
61903;SDS011;47857;52.270;6.804;2024-02-23T05:59:29;6.38;;;1.60;;
61903;SDS011;47857;52.270;6.804;2024-02-23T06:01:55;7.43;;;2.05;;
61903;SDS011;47857;52.270;6.804;2024-02-23T06:04:22;8.68;;;1.70;;
61903;SDS011;47857;52.270;6.804;2024-02-23T06:06:48;8.80;;;1.95;;
61903;SDS011;47857;52.270;6.804;2024-02-23T06:09:14;9.70;;;1.90;;
61903;SDS011;47857;52.270;6.804;2024-02-23T06:11:39;7.80;;;1.80;;
61903;SDS011;47857;52.270;6.804;2024-02-23T06:14:05;8.98;;;1.95;;
61903;SDS011;47857;52.270;6.804;2024-02-23T06:16:30;13.07;;;1.80;;
61903;SDS011;47857;52.270;6.804;2024-02-23T06:18:56;8.57;;;1.70;;
61903;SDS011;47857;52.270;6.804;2024-02-23T06:21:21;6.43;;;1.70;;
61903;SDS011;47857;52.270;6.804;2024-02-23T06:23:47;10.70;;;2.33;;
61903;SDS011;47857;52.270;6.804;2024-02-23T06:26:12;9.30;;;1.70;;
61903;SDS011;47857;52.270;6.804;2024-02-23T06:28:38;10.07;;;1.40;;
61903;SDS011;47857;52.270;6.804;2024-02-23T06:31:06;8.75;;;1.45;;
61903;SDS011;47857;52.270;6.804;2024-02-23T06:33:32;10.38;;;1.42;;
61903;SDS011;47857;52.270;6.804;2024-02-23T06:35:58;10.02;;;1.45;;
61903;SDS011;47857;52.270;6.804;2024-02-23T06:38:23;9.93;;;1.45;;
61903;SDS011;47857;52.270;6.804;2024-02-23T06:40:49;6.93;;;1.10;;
61903;SDS011;47857;52.270;6.804;2024-02-23T06:43:14;5.65;;;1.35;;
61903;SDS011;47857;52.270;6.804;2024-02-23T06:45:40;8.35;;;1.48;;
61903;SDS011;47857;52.270;6.804;2024-02-23T06:48:05;8.57;;;1.42;;
61903;SDS011;47857;52.270;6.804;2024-02-23T06:50:31;13.20;;;1.40;;
61903;SDS011;47857;52.270;6.804;2024-02-23T06:52:57;9.93;;;1.80;;
61903;SDS011;47857;52.270;6.804;2024-02-23T06:55:22;5.00;;;1.20;;
61903;SDS011;47857;52.270;6.804;2024-02-23T06:57:48;10.90;;;1.38;;
61903;SDS011;47857;52.270;6.804;2024-02-23T07:00:14;9.07;;;1.75;;
61903;SDS011;47857;52.270;6.804;2024-02-23T07:02:39;8.18;;;1.65;;
61903;SDS011;47857;52.270;6.804;2024-02-23T07:05:05;8.52;;;1.55;;
61903;SDS011;47857;52.270;6.804;2024-02-23T07:07:32;7.00;;;1.33;;
61903;SDS011;47857;52.270;6.804;2024-02-23T07:09:58;6.43;;;1.83;;
61903;SDS011;47857;52.270;6.804;2024-02-23T07:12:24;9.05;;;1.55;;
61903;SDS011;47857;52.270;6.804;2024-02-23T07:14:53;8.55;;;1.08;;
61903;SDS011;47857;52.270;6.804;2024-02-23T07:17:18;6.68;;;1.23;;
61903;SDS011;47857;52.270;6.804;2024-02-23T07:19:44;6.93;;;1.20;;
61903;SDS011;47857;52.270;6.804;2024-02-23T07:22:10;11.35;;;1.60;;
61903;SDS011;47857;52.270;6.804;2024-02-23T07:24:44;10.75;;;1.65;;
61903;SDS011;47857;52.270;6.804;2024-02-23T07:27:10;10.02;;;1.80;;
61903;SDS011;47857;52.270;6.804;2024-02-23T07:29:35;6.68;;;1.27;;
61903;SDS011;47857;52.270;6.804;2024-02-23T07:32:01;7.50;;;1.35;;
61903;SDS011;47857;52.270;6.804;2024-02-23T07:34:27;9.10;;;1.02;;
61903;SDS011;47857;52.270;6.804;2024-02-23T07:36:53;9.38;;;1.35;;
61903;SDS011;47857;52.270;6.804;2024-02-23T07:39:19;8.07;;;0.93;;
61903;SDS011;47857;52.270;6.804;2024-02-23T07:41:44;10.35;;;1.30;;
61903;SDS011;47857;52.270;6.804;2024-02-23T07:44:10;6.15;;;1.00;;
61903;SDS011;47857;52.270;6.804;2024-02-23T07:46:36;3.83;;;0.82;;
61903;SDS011;47857;52.270;6.804;2024-02-23T07:49:02;8.05;;;1.30;;
61903;SDS011;47857;52.270;6.804;2024-02-23T07:51:27;10.68;;;1.02;;
61903;SDS011;47857;52.270;6.804;2024-02-23T07:53:53;8.02;;;1.20;;
61903;SDS011;47857;52.270;6.804;2024-02-23T07:56:20;11.43;;;1.15;;
61903;SDS011;47857;52.270;6.804;2024-02-23T07:58:45;9.95;;;1.40;;
61903;SDS011;47857;52.270;6.804;2024-02-23T08:01:12;7.90;;;1.20;;
61903;SDS011;47857;52.270;6.804;2024-02-23T08:03:39;7.13;;;1.10;;
61903;SDS011;47857;52.270;6.804;2024-02-23T08:06:05;9.25;;;1.23;;
61903;SDS011;47857;52.270;6.804;2024-02-23T08:08:30;5.18;;;1.20;;
61903;SDS011;47857;52.270;6.804;2024-02-23T08:11:00;7.57;;;1.35;;
61903;SDS011;47857;52.270;6.804;2024-02-23T08:13:26;6.57;;;1.05;;
61903;SDS011;47857;52.270;6.804;2024-02-23T08:15:52;7.43;;;1.00;;
61903;SDS011;47857;52.270;6.804;2024-02-23T08:18:17;8.30;;;1.38;;
61903;SDS011;47857;52.270;6.804;2024-02-23T08:20:43;7.82;;;1.63;;
61903;SDS011;47857;52.270;6.804;2024-02-23T08:23:08;6.18;;;1.13;;
61903;SDS011;47857;52.270;6.804;2024-02-23T08:25:34;7.18;;;1.30;;
61903;SDS011;47857;52.270;6.804;2024-02-23T08:28:01;6.07;;;1.40;;
61903;SDS011;47857;52.270;6.804;2024-02-23T08:30:26;7.60;;;1.10;;
61903;SDS011;47857;52.270;6.804;2024-02-23T08:32:52;7.22;;;1.00;;
61903;SDS011;47857;52.270;6.804;2024-02-23T08:35:17;6.90;;;1.33;;
61903;SDS011;47857;52.270;6.804;2024-02-23T08:37:43;6.18;;;1.13;;
61903;SDS011;47857;52.270;6.804;2024-02-23T08:40:09;9.15;;;1.10;;
61903;SDS011;47857;52.270;6.804;2024-02-23T08:42:35;5.78;;;1.38;;
61903;SDS011;47857;52.270;6.804;2024-02-23T08:45:00;8.95;;;1.02;;
61903;SDS011;47857;52.270;6.804;2024-02-23T08:47:26;8.05;;;1.48;;
61903;SDS011;47857;52.270;6.804;2024-02-23T08:49:57;11.35;;;1.40;;
61903;SDS011;47857;52.270;6.804;2024-02-23T08:52:22;18.23;;;1.70;;
61903;SDS011;47857;52.270;6.804;2024-02-23T08:54:48;9.23;;;1.30;;
61903;SDS011;47857;52.270;6.804;2024-02-23T08:57:13;11.40;;;1.50;;
61903;SDS011;47857;52.270;6.804;2024-02-23T08:59:42;4.75;;;0.93;;
61903;SDS011;47857;52.270;6.804;2024-02-23T09:02:08;4.35;;;0.80;;
61903;SDS011;47857;52.270;6.804;2024-02-23T09:04:35;6.90;;;1.00;;
61903;SDS011;47857;52.270;6.804;2024-02-23T09:07:00;7.95;;;1.20;;
61903;SDS011;47857;52.270;6.804;2024-02-23T09:09:26;6.55;;;1.10;;
61903;SDS011;47857;52.270;6.804;2024-02-23T09:11:52;11.70;;;1.20;;
61903;SDS011;47857;52.270;6.804;2024-02-23T09:14:17;6.55;;;1.55;;
61903;SDS011;47857;52.270;6.804;2024-02-23T09:16:43;6.07;;;1.13;;
61903;SDS011;47857;52.270;6.804;2024-02-23T09:19:09;4.05;;;0.90;;
61903;SDS011;47857;52.270;6.804;2024-02-23T09:21:35;5.25;;;0.90;;
61903;SDS011;47857;52.270;6.804;2024-02-23T09:24:00;8.55;;;1.15;;
61903;SDS011;47857;52.270;6.804;2024-02-23T09:26:26;8.57;;;1.27;;
61903;SDS011;47857;52.270;6.804;2024-02-23T09:28:51;3.72;;;0.90;;
61903;SDS011;47857;52.270;6.804;2024-02-23T09:31:17;5.85;;;1.02;;
61903;SDS011;47857;52.270;6.804;2024-02-23T09:33:42;5.10;;;0.93;;
61903;SDS011;47857;52.270;6.804;2024-02-23T09:36:09;4.75;;;1.20;;
61903;SDS011;47857;52.270;6.804;2024-02-23T09:38:35;5.20;;;1.10;;
61903;SDS011;47857;52.270;6.804;2024-02-23T09:41:01;5.70;;;1.10;;
61903;SDS011;47857;52.270;6.804;2024-02-23T09:43:28;7.95;;;1.10;;
61903;SDS011;47857;52.270;6.804;2024-02-23T09:45:56;7.13;;;1.10;;
61903;SDS011;47857;52.270;6.804;2024-02-23T09:48:22;10.57;;;1.38;;
61903;SDS011;47857;52.270;6.804;2024-02-23T09:50:48;6.80;;;1.15;;
61903;SDS011;47857;52.270;6.804;2024-02-23T09:53:15;5.13;;;1.00;;
61903;SDS011;47857;52.270;6.804;2024-02-23T09:55:42;6.18;;;1.17;;
61903;SDS011;47857;52.270;6.804;2024-02-23T09:58:09;6.57;;;1.05;;
61903;SDS011;47857;52.270;6.804;2024-02-23T10:00:38;8.43;;;1.25;;
61903;SDS011;47857;52.270;6.804;2024-02-23T10:03:04;6.28;;;1.13;;
61903;SDS011;47857;52.270;6.804;2024-02-23T10:05:31;4.93;;;1.00;;
61903;SDS011;47857;52.270;6.804;2024-02-23T10:07:59;8.80;;;1.10;;
61903;SDS011;47857;52.270;6.804;2024-02-23T10:10:34;7.28;;;1.05;;
61903;SDS011;47857;52.270;6.804;2024-02-23T10:13:00;6.88;;;1.15;;
61903;SDS011;47857;52.270;6.804;2024-02-23T10:15:26;5.47;;;1.02;;
61903;SDS011;47857;52.270;6.804;2024-02-23T10:17:54;8.98;;;1.02;;
61903;SDS011;47857;52.270;6.804;2024-02-23T10:20:20;5.13;;;1.33;;
61903;SDS011;47857;52.270;6.804;2024-02-23T10:22:45;10.15;;;1.30;;
61903;SDS011;47857;52.270;6.804;2024-02-23T10:25:11;5.53;;;1.05;;
61903;SDS011;47857;52.270;6.804;2024-02-23T10:27:37;4.82;;;0.90;;
61903;SDS011;47857;52.270;6.804;2024-02-23T10:30:02;10.30;;;1.30;;
61903;SDS011;47857;52.270;6.804;2024-02-23T10:32:29;10.02;;;2.28;;
61903;SDS011;47857;52.270;6.804;2024-02-23T10:34:55;6.03;;;1.27;;
61903;SDS011;47857;52.270;6.804;2024-02-23T10:37:25;6.90;;;1.38;;
61903;SDS011;47857;52.270;6.804;2024-02-23T10:39:53;5.55;;;1.50;;
61903;SDS011;47857;52.270;6.804;2024-02-23T10:42:19;6.78;;;1.50;;
61903;SDS011;47857;52.270;6.804;2024-02-23T10:44:49;4.82;;;1.10;;
61903;SDS011;47857;52.270;6.804;2024-02-23T10:47:16;6.43;;;1.23;;
61903;SDS011;47857;52.270;6.804;2024-02-23T10:49:41;7.45;;;1.55;;
61903;SDS011;47857;52.270;6.804;2024-02-23T10:52:08;6.50;;;1.20;;
61903;SDS011;47857;52.270;6.804;2024-02-23T10:54:37;7.40;;;1.38;;
61903;SDS011;47857;52.270;6.804;2024-02-23T10:57:03;8.40;;;1.67;;
61903;SDS011;47857;52.270;6.804;2024-02-23T10:59:28;7.22;;;1.35;;
61903;SDS011;47857;52.270;6.804;2024-02-23T11:01:54;6.47;;;1.50;;
61903;SDS011;47857;52.270;6.804;2024-02-23T11:04:24;5.45;;;1.23;;
61903;SDS011;47857;52.270;6.804;2024-02-23T11:06:51;6.43;;;1.30;;
61903;SDS011;47857;52.270;6.804;2024-02-23T11:09:20;8.88;;;1.42;;
61903;SDS011;47857;52.270;6.804;2024-02-23T11:11:56;5.70;;;1.27;;
61903;SDS011;47857;52.270;6.804;2024-02-23T11:14:32;5.63;;;1.05;;
61903;SDS011;47857;52.270;6.804;2024-02-23T11:16:58;5.43;;;1.30;;
61903;SDS011;47857;52.270;6.804;2024-02-23T11:21:59;12.45;;;1.75;;
61903;SDS011;47857;52.270;6.804;2024-02-23T11:24:28;10.68;;;2.05;;
61903;SDS011;47857;52.270;6.804;2024-02-23T11:26:57;5.88;;;1.30;;
61903;SDS011;47857;52.270;6.804;2024-02-23T11:29:25;6.13;;;1.40;;
61903;SDS011;47857;52.270;6.804;2024-02-23T11:31:52;6.68;;;1.30;;
61903;SDS011;47857;52.270;6.804;2024-02-23T11:34:25;10.57;;;1.70;;
61903;SDS011;47857;52.270;6.804;2024-02-23T11:36:52;7.75;;;1.30;;
61903;SDS011;47857;52.270;6.804;2024-02-23T11:39:21;7.22;;;1.10;;
61903;SDS011;47857;52.270;6.804;2024-02-23T11:41:48;8.05;;;1.35;;
61903;SDS011;47857;52.270;6.804;2024-02-23T11:44:17;9.85;;;1.35;;
61903;SDS011;47857;52.270;6.804;2024-02-23T11:46:48;8.75;;;1.30;;
61903;SDS011;47857;52.270;6.804;2024-02-23T11:49:14;5.25;;;1.00;;
61903;SDS011;47857;52.270;6.804;2024-02-23T11:51:41;8.18;;;1.63;;
61903;SDS011;47857;52.270;6.804;2024-02-23T11:54:06;6.50;;;1.10;;
61903;SDS011;47857;52.270;6.804;2024-02-23T11:56:32;6.43;;;1.38;;
61903;SDS011;47857;52.270;6.804;2024-02-23T11:58:58;6.93;;;1.02;;
61903;SDS011;47857;52.270;6.804;2024-02-23T12:01:24;4.80;;;1.27;;
61903;SDS011;47857;52.270;6.804;2024-02-23T12:03:49;6.78;;;2.45;;
61903;SDS011;47857;52.270;6.804;2024-02-23T12:06:15;8.10;;;2.08;;
61903;SDS011;47857;52.270;6.804;2024-02-23T12:08:41;6.65;;;2.40;;
61903;SDS011;47857;52.270;6.804;2024-02-23T12:11:07;6.35;;;2.33;;
61903;SDS011;47857;52.270;6.804;2024-02-23T12:13:34;8.75;;;1.73;;
61903;SDS011;47857;52.270;6.804;2024-02-23T12:16:00;6.07;;;1.73;;
61903;SDS011;47857;52.270;6.804;2024-02-23T12:18:26;9.10;;;1.60;;
61903;SDS011;47857;52.270;6.804;2024-02-23T12:20:52;8.73;;;1.38;;
61903;SDS011;47857;52.270;6.804;2024-02-23T12:23:17;5.22;;;1.10;;
61903;SDS011;47857;52.270;6.804;2024-02-23T12:25:53;8.35;;;1.33;;
61903;SDS011;47857;52.270;6.804;2024-02-23T12:28:23;6.93;;;1.20;;
61903;SDS011;47857;52.270;6.804;2024-02-23T12:31:01;7.88;;;1.17;;
61903;SDS011;47857;52.270;6.804;2024-02-23T12:33:28;6.50;;;1.30;;
61903;SDS011;47857;52.270;6.804;2024-02-23T12:36:00;6.13;;;1.30;;
61903;SDS011;47857;52.270;6.804;2024-02-23T12:38:28;7.20;;;1.30;;
61903;SDS011;47857;52.270;6.804;2024-02-23T12:40:54;9.77;;;1.65;;
61903;SDS011;47857;52.270;6.804;2024-02-23T12:43:20;8.80;;;1.42;;
61903;SDS011;47857;52.270;6.804;2024-02-23T12:45:52;6.10;;;1.45;;
61903;SDS011;47857;52.270;6.804;2024-02-23T12:48:19;5.32;;;1.10;;
61903;SDS011;47857;52.270;6.804;2024-02-23T12:50:45;11.20;;;1.42;;
61903;SDS011;47857;52.270;6.804;2024-02-23T12:53:29;8.07;;;1.23;;
61903;SDS011;47857;52.270;6.804;2024-02-23T12:56:05;10.57;;;2.22;;
61903;SDS011;47857;52.270;6.804;2024-02-23T12:58:33;10.05;;;1.92;;
61903;SDS011;47857;52.270;6.804;2024-02-23T13:01:00;6.32;;;1.98;;
61903;SDS011;47857;52.270;6.804;2024-02-23T13:03:25;8.68;;;1.90;;
61903;SDS011;47857;52.270;6.804;2024-02-23T13:05:52;5.63;;;1.67;;
61903;SDS011;47857;52.270;6.804;2024-02-23T13:08:21;7.32;;;1.40;;
61903;SDS011;47857;52.270;6.804;2024-02-23T13:10:47;5.50;;;1.42;;
61903;SDS011;47857;52.270;6.804;2024-02-23T13:13:13;7.35;;;1.55;;
61903;SDS011;47857;52.270;6.804;2024-02-23T13:15:45;4.85;;;1.23;;
61903;SDS011;47857;52.270;6.804;2024-02-23T13:18:11;6.47;;;1.63;;
61903;SDS011;47857;52.270;6.804;2024-02-23T13:20:37;6.85;;;1.75;;
61903;SDS011;47857;52.270;6.804;2024-02-23T13:23:03;7.18;;;1.63;;
61903;SDS011;47857;52.270;6.804;2024-02-23T13:25:29;4.75;;;1.35;;
61903;SDS011;47857;52.270;6.804;2024-02-23T13:27:55;7.78;;;1.80;;
61903;SDS011;47857;52.270;6.804;2024-02-23T13:30:20;8.43;;;1.70;;
61903;SDS011;47857;52.270;6.804;2024-02-23T13:32:46;9.18;;;1.48;;
61903;SDS011;47857;52.270;6.804;2024-02-23T13:35:11;5.75;;;1.60;;
61903;SDS011;47857;52.270;6.804;2024-02-23T13:37:39;7.57;;;1.75;;
61903;SDS011;47857;52.270;6.804;2024-02-23T13:40:05;6.78;;;1.38;;
61903;SDS011;47857;52.270;6.804;2024-02-23T13:42:34;6.47;;;1.73;;
61903;SDS011;47857;52.270;6.804;2024-02-23T13:44:59;8.40;;;1.60;;
61903;SDS011;47857;52.270;6.804;2024-02-23T13:47:25;6.95;;;1.48;;
61903;SDS011;47857;52.270;6.804;2024-02-23T13:49:50;8.43;;;1.50;;
61903;SDS011;47857;52.270;6.804;2024-02-23T13:52:16;8.18;;;1.40;;
61903;SDS011;47857;52.270;6.804;2024-02-23T13:54:41;5.00;;;1.33;;
61903;SDS011;47857;52.270;6.804;2024-02-23T13:57:08;6.80;;;1.50;;
61903;SDS011;47857;52.270;6.804;2024-02-23T13:59:33;6.15;;;1.67;;
61903;SDS011;47857;52.270;6.804;2024-02-23T14:01:59;6.97;;;1.27;;
61903;SDS011;47857;52.270;6.804;2024-02-23T14:04:25;6.68;;;1.35;;
61903;SDS011;47857;52.270;6.804;2024-02-23T14:06:51;4.30;;;1.17;;
61903;SDS011;47857;52.270;6.804;2024-02-23T14:09:17;7.78;;;1.55;;
61903;SDS011;47857;52.270;6.804;2024-02-23T14:11:42;9.80;;;1.58;;
61903;SDS011;47857;52.270;6.804;2024-02-23T14:14:08;8.63;;;1.40;;
61903;SDS011;47857;52.270;6.804;2024-02-23T14:16:33;7.97;;;1.75;;
61903;SDS011;47857;52.270;6.804;2024-02-23T14:19:00;7.30;;;1.50;;
61903;SDS011;47857;52.270;6.804;2024-02-23T14:21:25;8.50;;;1.95;;
61903;SDS011;47857;52.270;6.804;2024-02-23T14:23:51;8.07;;;2.08;;
61903;SDS011;47857;52.270;6.804;2024-02-23T14:26:17;8.15;;;1.60;;
61903;SDS011;47857;52.270;6.804;2024-02-23T14:28:42;4.88;;;1.33;;
61903;SDS011;47857;52.270;6.804;2024-02-23T14:31:08;7.25;;;1.98;;
61903;SDS011;47857;52.270;6.804;2024-02-23T14:33:34;6.70;;;1.58;;
61903;SDS011;47857;52.270;6.804;2024-02-23T14:35:59;9.93;;;2.00;;
61903;SDS011;47857;52.270;6.804;2024-02-23T14:38:25;9.40;;;1.40;;
61903;SDS011;47857;52.270;6.804;2024-02-23T14:40:50;8.05;;;1.65;;
61903;SDS011;47857;52.270;6.804;2024-02-23T14:43:16;8.25;;;2.03;;